Nearby METAR Reports

 

KDWH - Houston/Dw Hooks, Texas, USA
Distance from station: WNW 3mi, 6km
Updated: 08/25/2019 9:53am
Mostly cloudy
Mostly cloudy
 Wind from W
Wind: W 6 mph , 9 km/h
Temperature: 84°F , 29°C
Heat Index: 94°F , 34°C
Dew Point: 77°F , 25°C
Humidity: 79%
Barometer: 29.89 inHg , 1012.2 hPa
Clouds: Mostly cloudy
Visibility: 10 miles , 16 km
Cloud details: Partly cloudy 1700 ft
Mostly cloudy 8000 ft
2019/08/25 14:53 KDWH 251453Z 26005KT 10SM SCT017 BKN080 29/25 A2989 RMK AO2 SLP120 T02940250 51006
KIAH - Houston/Intnl, Texas, USA
Distance from station: ESE 9mi, 14km
Updated: 08/25/2019 10:32am
Mostly cloudy
Mostly cloudy
 Wind from WNW
Wind: WNW 6 mph , 9 km/h
Temperature: 88°F , 31°C
Heat Index: 98°F , 37°C
Dew Point: 75°F , 24°C
Humidity: 66%
Barometer: 29.90 inHg , 1012.5 hPa
Clouds: Mostly cloudy
Visibility: 10 miles , 16 km
Cloud details: Few Clouds 1700 ft
Partly cloudy 10000 ft
Partly cloudy 14000 ft
Mostly cloudy 18000 ft
Mostly cloudy 25000 ft
2019/08/25 15:32 KIAH 251532Z 29005KT 10SM FEW017 SCT100 SCT140 BKN180 BKN250 31/24 A2990 RMK AO2 T03110244
 
KCXO - Conroe, Texas, USA
Distance from station: NNE 21mi, 34km
Updated: 08/25/2019 9:53am
Light rain, Overcast
Light rain, Overcast
 Wind from N
Wind: N 3 mph , 6 km/h
Temperature: 81°F , 27°C
Heat Index: 89°F , 32°C
Dew Point: 79°F , 26°C
Humidity: 94%
Barometer: 29.91 inHg , 1012.9 hPa
Summary: Light rain
Clouds: Overcast
Visibility: 8 miles , 13 km
Cloud details: Partly cloudy 800 ft
Mostly cloudy 6000 ft
Overcast 8500 ft
2019/08/25 14:53 KCXO 251453Z 35003KT 8SM -RA SCT008 BKN060 OVC085 27/26 A2991 RMK AO2 RAB19 SLP123 P0000 60000 T02720256 51012 $
KMCJ - Houston/Univ, Texas, USA
Distance from station: SSE 24mi, 39km
Updated: 08/25/2019 10:35am
Partly cloudy
Partly cloudy
 Wind from calm
Wind: Calm
Temperature: 90°F , 32°C
Heat Index: 101°F , 38°C
Dew Point: 75°F , 24°C
Humidity: 63%
Barometer: 29.89 inHg , 1012.2 hPa
Clouds: Partly cloudy
Visibility: 9 miles , 14 km
Cloud details: Few Clouds 1700 ft
Few Clouds 2200 ft
Partly cloudy 10000 ft
2019/08/25 15:35 KMCJ 251535Z AUTO 00000KT 9SM FEW017 FEW022 SCT100 32/24 A2989 RMK A01
 
KTME - Houston Exec, Texas, USA
Distance from station: SW 30mi, 48km
Updated: 08/25/2019 10:35am
Mostly cloudy
Mostly cloudy
 Wind from varies
Wind: varies 5 mph , 7 km/h, Gust: 12 mph , 19 km/h
Temperature: 90°F , 32°C
Heat Index: 104°F , 40°C
Dew Point: 77°F , 25°C
Humidity: 67%
Barometer: 29.91 inHg , 1012.9 hPa
Clouds: Mostly cloudy
Visibility: 10 miles , 16 km
Cloud details: Mostly cloudy 2300 ft
Mostly cloudy 3100 ft
Mostly cloudy 11000 ft
2019/08/25 15:35 KTME 251535Z AUTO VRB04G10KT 10SM BKN023 BKN031 BKN110 32/25 A2991 RMK AO2
KHOU - Houston/Hobby, Texas, USA
Distance from station: SSE 32mi, 51km
Updated: 08/25/2019 9:53am
Mostly cloudy
Mostly cloudy
 Wind from WSW
Wind: WSW 5 mph , 7 km/h
Temperature: 86°F , 30°C
Heat Index: 97°F , 36°C
Dew Point: 77°F , 25°C
Humidity: 75%
Barometer: 29.88 inHg , 1011.9 hPa
Clouds: Mostly cloudy
Visibility: 10 miles , 16 km
Cloud details: Partly cloudy 3000 ft
Mostly cloudy 9000 ft
Mostly cloudy 25000 ft
2019/08/25 14:53 KHOU 251453Z 25004KT 10SM SCT030 BKN090 BKN250 30/25 A2988 RMK AO2 SLP122 T03000250 50008
 
KSGR - Houston/Sugar La, Texas, USA
Distance from station: SSW 32mi, 51km
Updated: 08/25/2019 9:53am
Mostly cloudy
Mostly cloudy
 Wind from WSW
Wind: WSW 5 mph , 7 km/h
Temperature: 84°F , 29°C
Heat Index: 98°F , 37°C
Dew Point: 81°F , 27°C
Humidity: 89%
Barometer: 29.88 inHg , 1011.9 hPa
Clouds: Mostly cloudy
Visibility: 10 miles , 16 km
Cloud details: Few Clouds 1400 ft
Mostly cloudy 10000 ft
2019/08/25 14:53 KSGR 251453Z 25004KT 10SM FEW014 BKN100 29/27 A2988 RMK AO2 SLP119 T02940267 52003
K6R3 - Cleveland Muni, Texas, USA
Distance from station: NE 36mi, 58km
Updated: 08/25/2019 10:35am
Overcast
Overcast
 Wind from W
Wind: W 3 mph , 6 km/h
Temperature: 86°F , 30°C
Heat Index: 99°F , 37°C
Dew Point: 79°F , 26°C
Humidity: 79%
Barometer: 29.92 inHg , 1013.2 hPa
Clouds: Overcast
Visibility: 10 miles , 16 km
Cloud details: Partly cloudy 1600 ft
Overcast 2300 ft
2019/08/25 15:35 K6R3 251535Z AUTO 26003KT 10SM SCT016 OVC023 30/26 A2992 RMK AO2 T03040263
 
KAXH - Houston/Southwst, Texas, USA
Distance from station: S 37mi, 60km
Updated: 08/25/2019 10:35am
Mostly cloudy
Mostly cloudy
 Wind from SSW
Wind: SSW 3 mph , 6 km/h
Temperature: 86°F , 30°C
Heat Index: 99°F , 37°C
Dew Point: 79°F , 26°C
Humidity: 79%
Barometer: 29.90 inHg , 1012.5 hPa
Clouds: Mostly cloudy
Visibility: 10 miles , 16 km
Cloud details: Mostly cloudy 1600 ft
Mostly cloudy 2200 ft
Mostly cloudy 11000 ft
2019/08/25 15:35 KAXH 251535Z AUTO 20003KT 10SM BKN016 BKN022 BKN110 30/26 A2990 RMK AO2 LTG DSNT S T02980258
KEFD - Houston/Ellingto, Texas, USA
Distance from station: SSE 37mi, 60km
Updated: 08/25/2019 9:50am
Mostly cloudy
Mostly cloudy
 Wind from SSW
Wind: SSW 6 mph , 9 km/h
Temperature: 86°F , 30°C
Heat Index: 97°F , 36°C
Dew Point: 77°F , 25°C
Humidity: 75%
Barometer: 29.89 inHg , 1012.2 hPa
Clouds: Mostly cloudy
Visibility: 10 miles , 16 km
Cloud details: Partly cloudy 3000 ft
Mostly cloudy 10000 ft
Mostly cloudy 25000 ft
2019/08/25 14:50 KEFD 251450Z 20005KT 10SM SCT030 BKN100 BKN250 30/25 A2989
 
KLVJ - Houston, Texas, USA
Distance from station: SSE 40mi, 64km
Updated: 08/25/2019 10:26am
Few Clouds
Few Clouds
 Wind from calm
Wind: Calm
Temperature: 88°F , 31°C
Heat Index: 100°F , 38°C
Dew Point: 77°F , 25°C
Humidity: 70%
Barometer: 29.91 inHg , 1012.9 hPa
Clouds: Few Clouds
Visibility: 10 miles , 16 km
Cloud details: Few Clouds 1800 ft
2019/08/25 15:26 KLVJ 251526Z AUTO 00000KT 10SM FEW018 31/25 A2991 RMK AO2 T03060250
KUTS - Huntsville, Texas, USA
Distance from station: N 48mi, 78km
Updated: 08/25/2019 9:53am
Clear
Clear
 Wind from WSW
Wind: WSW 6 mph , 9 km/h
Temperature: 84°F , 29°C
Heat Index: 92°F , 33°C
Dew Point: 75°F , 24°C
Humidity: 74%
Barometer: 29.91 inHg , 1012.9 hPa
Clouds: Clear
Visibility: 10 miles , 16 km
2019/08/25 14:53 KUTS 251453Z AUTO 24005KT 10SM CLR 29/24 A2991 RMK AO2 SLP122 T02890239 51013